createdAt,value
2023-02-27T00:00:27.988Z,0.00
2023-02-27T00:01:28.179Z,0.00
2023-02-27T00:02:28.323Z,0.00
2023-02-27T00:03:28.018Z,0.00
2023-02-27T00:04:27.961Z,0.00
2023-02-27T00:05:27.933Z,0.00
2023-02-27T00:06:27.941Z,0.00
2023-02-27T00:07:28.296Z,0.00
2023-02-27T00:08:27.972Z,0.00
2023-02-27T00:09:27.923Z,0.00
2023-02-27T00:10:27.899Z,0.00
2023-02-27T00:11:28.363Z,0.00
2023-02-27T00:12:27.883Z,0.00
2023-02-27T00:13:27.868Z,0.00
2023-02-27T00:14:27.853Z,0.00
2023-02-27T00:15:27.843Z,0.00
2023-02-27T00:16:27.894Z,0.00
2023-02-27T00:17:27.823Z,0.00
2023-02-27T00:18:27.821Z,0.00
2023-02-27T00:19:27.802Z,0.00
2023-02-27T00:20:27.797Z,0.00
2023-02-27T00:21:28.087Z,0.00
2023-02-27T00:22:27.776Z,0.00
2023-02-27T00:23:27.770Z,0.00
2023-02-27T00:24:27.759Z,0.00
2023-02-27T00:25:27.747Z,0.00
2023-02-27T00:26:27.748Z,0.00
2023-02-27T00:27:27.733Z,0.00
2023-02-27T00:28:27.729Z,0.00
2023-02-27T00:29:27.708Z,0.00
2023-02-27T00:30:27.716Z,0.00
2023-02-27T00:31:28.080Z,0.00
2023-02-27T00:32:27.730Z,0.00
2023-02-27T00:33:27.669Z,0.00
2023-02-27T00:34:27.660Z,0.00
2023-02-27T00:35:27.660Z,0.00
2023-02-27T00:36:27.648Z,0.00
2023-02-27T00:37:27.622Z,0.00
2023-02-27T00:38:27.631Z,0.00
2023-02-27T00:39:27.606Z,0.00
2023-02-27T00:40:27.609Z,0.00
2023-02-27T00:41:28.052Z,0.00
2023-02-27T00:42:27.579Z,0.00
2023-02-27T00:43:27.578Z,0.00
2023-02-27T00:44:27.565Z,0.00
2023-02-27T00:45:27.550Z,0.00
2023-02-27T00:46:27.565Z,0.00
2023-02-27T00:47:27.530Z,0.00
2023-02-27T00:48:27.529Z,0.00
2023-02-27T00:49:27.509Z,0.00
2023-02-27T00:50:27.512Z,0.00
2023-02-27T00:51:27.884Z,0.00
2023-02-27T00:52:27.485Z,0.00
2023-02-27T00:53:27.476Z,0.00
2023-02-27T00:54:27.470Z,0.00
2023-02-27T00:55:27.571Z,0.00
2023-02-27T00:56:27.451Z,0.00
2023-02-27T00:57:27.472Z,0.00
2023-02-27T00:58:27.432Z,0.00
2023-02-27T00:59:27.417Z,0.00
2023-02-27T01:00:27.418Z,0.00
2023-02-27T01:01:27.816Z,0.00
2023-02-27T01:02:27.402Z,0.00
2023-02-27T01:03:27.376Z,0.00
2023-02-27T01:04:27.375Z,0.00
2023-02-27T01:05:27.362Z,0.00
2023-02-27T01:06:27.361Z,0.00
2023-02-27T01:07:27.343Z,0.00
2023-02-27T01:08:27.345Z,0.00
2023-02-27T01:09:32.804Z,0.00
2023-02-27T01:10:27.316Z,0.00
2023-02-27T01:11:27.607Z,0.00
2023-02-27T01:12:27.293Z,0.00
2023-02-27T01:13:27.300Z,0.00
2023-02-27T01:14:27.287Z,0.00
2023-02-27T01:15:27.286Z,0.00
2023-02-27T01:16:27.325Z,0.00
2023-02-27T01:17:27.252Z,0.00
2023-02-27T01:18:27.246Z,0.00
2023-02-27T01:19:27.233Z,0.00
2023-02-27T01:20:27.219Z,0.00
2023-02-27T01:21:27.563Z,0.00
2023-02-27T01:22:27.200Z,0.00
2023-02-27T01:23:27.193Z,0.00
2023-02-27T01:24:27.186Z,0.00
2023-02-27T01:25:27.186Z,0.00
2023-02-27T01:26:27.166Z,0.00
2023-02-27T01:27:27.178Z,0.00
2023-02-27T01:28:27.151Z,0.00
2023-02-27T01:29:27.141Z,0.00
2023-02-27T01:30:27.204Z,0.00
2023-02-27T01:31:27.568Z,0.00
2023-02-27T01:32:27.287Z,0.00
2023-02-27T01:33:27.316Z,0.00
2023-02-27T01:34:27.093Z,0.00
2023-02-27T01:35:27.083Z,0.00
2023-02-27T01:36:27.077Z,0.00
2023-02-27T01:37:27.061Z,0.00
2023-02-27T01:38:27.270Z,0.00
2023-02-27T01:39:27.045Z,0.00
2023-02-27T01:40:27.029Z,0.00
2023-02-27T01:41:27.415Z,0.00
2023-02-27T01:42:27.015Z,0.00
2023-02-27T01:43:27.136Z,0.00
2023-02-27T01:44:26.994Z,0.00
2023-02-27T01:45:26.998Z,0.00
2023-02-27T01:46:26.979Z,0.00
2023-02-27T01:47:26.974Z,0.00
2023-02-27T01:48:27.096Z,0.00
2023-02-27T01:49:26.952Z,0.00
2023-02-27T01:50:26.932Z,0.00
2023-02-27T01:51:27.156Z,0.00
2023-02-27T01:52:26.917Z,0.00
2023-02-27T01:53:27.197Z,0.00
2023-02-27T01:54:26.899Z,0.00
2023-02-27T01:55:26.893Z,0.00
2023-02-27T01:56:26.874Z,0.00
2023-02-27T01:57:26.876Z,0.00
2023-02-27T01:58:26.869Z,0.00
2023-02-27T01:59:26.850Z,0.00
2023-02-27T02:00:26.842Z,0.00
2023-02-27T02:01:27.352Z,0.00
2023-02-27T02:02:26.898Z,0.00
2023-02-27T02:03:27.139Z,0.00
2023-02-27T02:04:26.807Z,0.00
2023-02-27T02:05:26.788Z,0.00
2023-02-27T02:06:26.796Z,0.00
2023-02-27T02:07:26.772Z,0.00
2023-02-27T02:08:27.225Z,0.00
2023-02-27T02:09:26.764Z,0.00
2023-02-27T02:10:26.748Z,0.00
2023-02-27T02:11:26.964Z,0.00
2023-02-27T02:12:26.727Z,0.00
2023-02-27T02:13:26.895Z,0.00
2023-02-27T02:14:26.723Z,0.00
2023-02-27T02:15:26.695Z,0.00
2023-02-27T02:16:26.725Z,0.00
2023-02-27T02:17:26.676Z,0.00
2023-02-27T02:18:26.950Z,0.00
2023-02-27T02:19:26.653Z,0.00
2023-02-27T02:20:26.648Z,0.00
2023-02-27T02:21:27.071Z,0.00
2023-02-27T02:22:26.629Z,0.00
2023-02-27T02:23:27.063Z,0.00
2023-02-27T02:24:26.614Z,0.00
2023-02-27T02:25:26.593Z,0.00
2023-02-27T02:26:27.764Z,0.00
2023-02-27T02:27:26.584Z,0.00
2023-02-27T02:28:26.911Z,0.00
2023-02-27T02:29:26.561Z,0.00
2023-02-27T02:30:26.758Z,0.00
2023-02-27T02:31:27.107Z,0.00
2023-02-27T02:32:26.563Z,0.00
2023-02-27T02:33:26.908Z,0.00
2023-02-27T02:34:26.509Z,0.00
2023-02-27T02:35:26.505Z,0.00
2023-02-27T02:36:26.490Z,0.00
2023-02-27T02:37:26.475Z,0.00
2023-02-27T02:38:26.787Z,0.00
2023-02-27T02:39:26.457Z,0.00
2023-02-27T02:40:26.454Z,0.00
2023-02-27T02:41:26.709Z,0.00
2023-02-27T02:42:26.434Z,0.00
2023-02-27T02:43:26.699Z,0.00
2023-02-27T02:44:26.421Z,0.00
2023-02-27T02:45:26.406Z,0.00
2023-02-27T02:46:26.425Z,0.00
2023-02-27T02:47:26.388Z,0.00
2023-02-27T02:48:26.706Z,0.00
2023-02-27T02:49:26.369Z,0.00
2023-02-27T02:50:26.360Z,0.00
2023-02-27T02:51:26.677Z,0.00
2023-02-27T02:52:26.341Z,0.00
2023-02-27T02:53:33.739Z,0.00
2023-02-27T02:54:26.342Z,0.00
2023-02-27T02:55:26.307Z,0.00
2023-02-27T02:56:26.306Z,0.00
2023-02-27T02:57:26.283Z,0.00
2023-02-27T02:58:26.300Z,0.00
2023-02-27T02:59:26.273Z,0.00
2023-02-27T03:00:26.261Z,0.00
2023-02-27T03:01:26.637Z,0.00
2023-02-27T03:02:26.246Z,0.00
2023-02-27T03:03:26.225Z,0.00
2023-02-27T03:04:26.238Z,0.00
2023-02-27T03:05:26.213Z,0.00
2023-02-27T03:06:26.200Z,0.00
2023-02-27T03:07:26.258Z,0.00
2023-02-27T03:08:26.186Z,0.00
2023-02-27T03:09:26.164Z,0.00
2023-02-27T03:10:26.159Z,0.00
2023-02-27T03:11:26.443Z,0.00
2023-02-27T03:12:26.139Z,0.00
2023-02-27T03:13:26.129Z,0.00
2023-02-27T03:14:26.125Z,0.00
2023-02-27T03:15:26.113Z,0.00
2023-02-27T03:16:26.103Z,0.00
2023-02-27T03:17:26.087Z,0.00
2023-02-27T03:18:26.081Z,0.00
2023-02-27T03:19:26.072Z,0.00
2023-02-27T03:20:26.071Z,0.00
2023-02-27T03:21:26.387Z,0.00
2023-02-27T03:22:26.041Z,0.00
2023-02-27T03:23:26.023Z,0.00
2023-02-27T03:24:26.028Z,0.00
2023-02-27T03:25:26.001Z,0.00
2023-02-27T03:26:25.998Z,0.00
2023-02-27T03:27:25.984Z,0.00
2023-02-27T03:28:25.979Z,0.00
2023-02-27T03:29:25.968Z,0.00
2023-02-27T03:30:25.975Z,0.00
2023-02-27T03:31:26.542Z,0.00
2023-02-27T03:32:25.992Z,0.00
2023-02-27T03:33:25.923Z,0.00
2023-02-27T03:34:25.922Z,0.00
2023-02-27T03:35:25.907Z,0.00
2023-02-27T03:36:25.898Z,0.00
2023-02-27T03:37:25.880Z,0.00
2023-02-27T03:38:25.879Z,0.00
2023-02-27T03:39:25.873Z,0.00
2023-02-27T03:40:25.861Z,0.00
2023-02-27T03:41:26.162Z,0.00
2023-02-27T03:42:25.841Z,0.00
2023-02-27T03:43:25.829Z,0.00
2023-02-27T03:44:25.823Z,0.00
2023-02-27T03:45:25.820Z,0.00
2023-02-27T03:46:25.828Z,0.00
2023-02-27T03:47:25.796Z,0.00
2023-02-27T03:48:25.774Z,0.00
2023-02-27T03:49:25.766Z,0.00
2023-02-27T03:50:25.757Z,0.00
2023-02-27T03:51:26.042Z,0.00
2023-02-27T03:52:25.738Z,0.00
2023-02-27T03:53:25.724Z,0.00
2023-02-27T03:54:25.720Z,0.00
2023-02-27T03:55:25.721Z,0.00
2023-02-27T03:56:25.700Z,0.00
2023-02-27T03:57:25.687Z,0.00
2023-02-27T03:58:25.680Z,0.00
2023-02-27T03:59:25.671Z,0.00
2023-02-27T04:00:25.663Z,0.00
2023-02-27T04:01:26.027Z,0.00
2023-02-27T04:02:25.640Z,0.00
2023-02-27T04:03:25.622Z,0.00
2023-02-27T04:04:25.644Z,0.00
2023-02-27T04:05:25.619Z,0.00
2023-02-27T04:06:25.615Z,0.00
2023-02-27T04:07:25.613Z,0.00
2023-02-27T04:08:25.591Z,0.00
2023-02-27T04:09:25.578Z,0.00
2023-02-27T04:10:25.582Z,0.00
2023-02-27T04:11:25.979Z,0.00
2023-02-27T04:12:25.563Z,0.00
2023-02-27T04:13:25.528Z,0.00
2023-02-27T04:14:25.531Z,0.00
2023-02-27T04:15:25.513Z,0.00
2023-02-27T04:16:25.590Z,0.00
2023-02-27T04:17:25.495Z,0.00
2023-02-27T04:18:25.511Z,0.00
2023-02-27T04:19:25.473Z,0.00
2023-02-27T04:20:25.461Z,0.00
2023-02-27T04:21:26.105Z,0.00
2023-02-27T04:22:25.442Z,0.00
2023-02-27T04:23:25.432Z,0.00
2023-02-27T04:24:25.426Z,0.00
2023-02-27T04:25:25.411Z,0.00
2023-02-27T04:26:25.406Z,0.00
2023-02-27T04:27:25.394Z,0.00
2023-02-27T04:28:25.391Z,0.00
2023-02-27T04:29:25.375Z,0.00
2023-02-27T04:30:25.368Z,0.00
2023-02-27T04:31:25.787Z,0.00
2023-02-27T04:32:25.508Z,0.00
2023-02-27T04:33:25.334Z,0.00
2023-02-27T04:34:25.337Z,0.00
2023-02-27T04:35:25.323Z,0.00
2023-02-27T04:36:25.316Z,0.00
2023-02-27T04:37:25.311Z,0.00
2023-02-27T04:38:25.296Z,0.00
2023-02-27T04:39:25.284Z,0.00
2023-02-27T04:40:25.274Z,0.00
2023-02-27T04:41:25.514Z,0.00
2023-02-27T04:42:25.254Z,0.00
2023-02-27T04:43:25.284Z,0.00
2023-02-27T04:44:25.245Z,0.00
2023-02-27T04:45:25.287Z,0.00
2023-02-27T04:46:25.215Z,0.00
2023-02-27T04:47:25.211Z,0.00
2023-02-27T04:48:25.193Z,0.00
2023-02-27T04:49:25.606Z,0.00
2023-02-27T04:50:25.178Z,0.00
2023-02-27T04:51:25.383Z,0.00
2023-02-27T04:52:25.155Z,0.00
2023-02-27T04:53:25.145Z,0.00
2023-02-27T04:54:25.491Z,0.00
2023-02-27T04:55:25.143Z,0.00
2023-02-27T04:56:25.122Z,0.00
2023-02-27T04:57:25.107Z,0.00
2023-02-27T04:58:25.427Z,0.00
2023-02-27T04:59:25.421Z,0.00
2023-02-27T05:00:25.082Z,0.00
2023-02-27T05:01:25.255Z,0.00
2023-02-27T05:02:25.273Z,0.00
2023-02-27T05:03:25.044Z,0.00
2023-02-27T05:04:25.347Z,0.00
2023-02-27T05:05:25.027Z,0.00
2023-02-27T05:06:25.042Z,0.00
2023-02-27T05:07:25.006Z,0.00
2023-02-27T05:08:25.003Z,0.00
2023-02-27T05:09:25.349Z,0.00
2023-02-27T05:10:24.981Z,0.00
2023-02-27T05:11:25.212Z,0.00
2023-02-27T05:12:24.963Z,0.00
2023-02-27T05:13:24.956Z,0.00
2023-02-27T05:14:24.966Z,0.00
2023-02-27T05:15:24.924Z,0.00
2023-02-27T05:16:25.019Z,0.00
2023-02-27T05:17:24.914Z,0.00
2023-02-27T05:18:24.905Z,0.00
2023-02-27T05:19:24.931Z,0.00
2023-02-27T05:20:24.880Z,0.00
2023-02-27T05:21:25.156Z,0.00
2023-02-27T05:22:24.869Z,0.00
2023-02-27T05:23:24.854Z,0.00
2023-02-27T05:24:25.152Z,0.00
2023-02-27T05:25:24.834Z,0.00
2023-02-27T05:26:24.823Z,0.00
2023-02-27T05:27:24.810Z,0.00
2023-02-27T05:28:24.806Z,0.00
2023-02-27T05:29:24.852Z,0.00
2023-02-27T05:30:24.792Z,0.00
2023-02-27T05:31:25.059Z,0.00
2023-02-27T05:32:24.801Z,0.00
2023-02-27T05:33:24.753Z,0.00
2023-02-27T05:34:25.099Z,0.00
2023-02-27T05:35:24.917Z,0.00
2023-02-27T05:36:24.739Z,0.00
2023-02-27T05:37:24.674Z,0.00
2023-02-27T05:38:24.652Z,0.00
2023-02-27T05:39:24.826Z,0.00
2023-02-27T05:40:24.632Z,0.00
2023-02-27T05:41:24.817Z,0.00
2023-02-27T05:42:24.618Z,0.00
2023-02-27T05:43:24.600Z,0.00
2023-02-27T05:44:25.124Z,0.00
2023-02-27T05:45:24.582Z,0.00
2023-02-27T05:46:24.580Z,0.00
2023-02-27T05:47:24.582Z,0.00
2023-02-27T05:48:24.558Z,0.00
2023-02-27T05:49:24.562Z,0.00
2023-02-27T05:50:24.537Z,0.00
2023-02-27T05:51:24.687Z,0.00
2023-02-27T05:52:24.517Z,0.00
2023-02-27T05:53:24.502Z,0.00
2023-02-27T05:54:24.855Z,0.00
2023-02-27T05:55:24.486Z,0.00
2023-02-27T05:56:24.588Z,0.00
2023-02-27T05:57:24.461Z,0.00
2023-02-27T05:58:24.459Z,0.00
2023-02-27T05:59:24.805Z,0.00
2023-02-27T06:00:24.458Z,0.00
2023-02-27T06:01:24.425Z,0.00
2023-02-27T06:02:24.507Z,0.00
2023-02-27T06:03:24.431Z,0.00
2023-02-27T06:04:24.742Z,0.00
2023-02-27T06:05:24.390Z,0.00
2023-02-27T06:06:24.377Z,0.00
2023-02-27T06:07:24.374Z,0.00
2023-02-27T06:08:24.361Z,0.00
2023-02-27T06:09:24.397Z,0.00
2023-02-27T06:10:24.342Z,5.62
2023-02-27T06:11:24.340Z,5.62
2023-02-27T06:12:24.326Z,5.62
2023-02-27T06:13:24.317Z,5.62
2023-02-27T06:14:24.303Z,5.62
2023-02-27T06:15:24.301Z,5.62
2023-02-27T06:16:24.322Z,5.62
2023-02-27T06:17:24.278Z,5.62
2023-02-27T06:18:24.260Z,5.62
2023-02-27T06:19:24.256Z,5.62
2023-02-27T06:20:24.246Z,11.25
2023-02-27T06:21:24.236Z,11.25
2023-02-27T06:22:24.222Z,11.25
2023-02-27T06:23:24.223Z,11.25
2023-02-27T06:24:24.200Z,11.25
2023-02-27T06:25:24.201Z,11.25
2023-02-27T06:26:24.188Z,11.25
2023-02-27T06:27:24.175Z,11.25
2023-02-27T06:28:24.160Z,16.88
2023-02-27T06:29:24.154Z,16.88
2023-02-27T06:30:24.153Z,16.88
2023-02-27T06:31:24.147Z,16.88
2023-02-27T06:32:24.122Z,22.50
2023-02-27T06:33:24.114Z,22.50
2023-02-27T06:34:24.099Z,39.38
2023-02-27T06:35:24.095Z,73.12
2023-02-27T06:36:24.082Z,56.25
2023-02-27T06:37:24.089Z,73.12
2023-02-27T06:38:24.065Z,106.88
2023-02-27T06:39:24.058Z,135.00
2023-02-27T06:40:24.054Z,146.25
2023-02-27T06:41:24.040Z,168.75
2023-02-27T06:42:24.018Z,185.62
2023-02-27T06:43:24.017Z,202.50
2023-02-27T06:44:24.018Z,191.25
2023-02-27T06:45:24.002Z,180.00
2023-02-27T06:46:24.045Z,202.50
2023-02-27T06:47:23.978Z,213.75
2023-02-27T06:48:23.971Z,225.00
2023-02-27T06:49:23.956Z,241.88
2023-02-27T06:50:23.944Z,247.50
2023-02-27T06:51:23.953Z,281.25
2023-02-27T06:52:23.921Z,258.75
2023-02-27T06:53:23.927Z,241.88
2023-02-27T06:54:23.901Z,275.62
2023-02-27T06:55:23.903Z,315.00
2023-02-27T06:56:23.906Z,298.12
2023-02-27T06:57:23.899Z,264.38
2023-02-27T06:58:23.868Z,264.38
2023-02-27T06:59:23.871Z,247.50
2023-02-27T07:00:23.868Z,281.25
2023-02-27T07:01:23.868Z,303.75
2023-02-27T07:02:23.827Z,326.25
2023-02-27T07:03:23.832Z,343.12
2023-02-27T07:04:23.855Z,303.75
2023-02-27T07:05:23.807Z,309.38
2023-02-27T07:07:32.840Z,320.62
2023-02-27T07:07:41.059Z,337.50
2023-02-27T07:08:23.768Z,303.75
2023-02-27T07:09:23.760Z,309.38
2023-02-27T07:10:23.753Z,343.12
2023-02-27T07:11:23.764Z,320.62
2023-02-27T07:12:23.730Z,326.25
2023-02-27T07:13:23.726Z,331.88
2023-02-27T07:14:23.717Z,343.12
2023-02-27T07:15:24.010Z,354.38
2023-02-27T07:16:23.690Z,343.12
2023-02-27T07:17:23.687Z,320.62
2023-02-27T07:18:23.670Z,343.12
2023-02-27T07:19:23.667Z,393.75
2023-02-27T07:20:23.961Z,376.88
2023-02-27T07:21:23.653Z,382.50
2023-02-27T07:22:23.635Z,343.12
2023-02-27T07:23:23.641Z,360.00
2023-02-27T07:24:23.610Z,405.00
2023-02-27T07:25:24.042Z,382.50
2023-02-27T07:26:23.601Z,393.75
2023-02-27T07:27:23.589Z,376.88
2023-02-27T07:28:23.603Z,348.75
2023-02-27T07:29:23.561Z,371.25
2023-02-27T07:30:23.887Z,376.88
2023-02-27T07:31:23.613Z,365.62
2023-02-27T07:32:23.606Z,365.62
2023-02-27T07:33:23.553Z,360.00
2023-02-27T07:34:23.510Z,410.62
2023-02-27T07:35:23.812Z,421.88
2023-02-27T07:36:23.492Z,399.38
2023-02-27T07:37:23.485Z,388.12
2023-02-27T07:38:23.468Z,365.62
2023-02-27T07:39:23.478Z,399.38
2023-02-27T07:40:24.243Z,405.00
2023-02-27T07:41:30.265Z,393.75
2023-02-27T07:42:23.441Z,433.12
2023-02-27T07:43:23.433Z,433.12
2023-02-27T07:44:23.410Z,416.25
2023-02-27T07:45:23.759Z,405.00
2023-02-27T07:46:23.440Z,382.50
2023-02-27T07:47:23.389Z,410.62
2023-02-27T07:48:23.375Z,427.50
2023-02-27T07:49:23.387Z,489.38
2023-02-27T07:50:23.716Z,618.75
2023-02-27T07:51:23.348Z,624.38
2023-02-27T07:52:23.334Z,680.62
2023-02-27T07:53:23.330Z,658.12
2023-02-27T07:54:23.331Z,573.75
2023-02-27T07:55:24.259Z,601.88
2023-02-27T07:56:23.292Z,573.75
2023-02-27T07:57:23.292Z,506.25
2023-02-27T07:58:23.287Z,478.12
2023-02-27T07:59:23.269Z,444.38
2023-02-27T08:00:23.590Z,343.12
2023-02-27T08:01:23.246Z,270.00
2023-02-27T08:02:23.285Z,264.38
2023-02-27T08:03:23.233Z,253.12
2023-02-27T08:04:23.263Z,236.25
2023-02-27T08:05:23.605Z,230.62
2023-02-27T08:06:23.196Z,241.88
2023-02-27T08:07:23.192Z,213.75
2023-02-27T08:08:23.172Z,163.12
2023-02-27T08:09:23.173Z,129.38
2023-02-27T08:10:23.501Z,129.38
2023-02-27T08:11:23.155Z,129.38
2023-02-27T08:12:23.136Z,123.75
2023-02-27T08:13:42.364Z,129.38
2023-02-27T08:14:23.121Z,129.38
2023-02-27T08:15:23.890Z,129.38
2023-02-27T08:16:23.232Z,123.75
2023-02-27T08:17:23.092Z,123.75
2023-02-27T08:18:23.080Z,123.75
2023-02-27T08:19:23.069Z,123.75
2023-02-27T08:20:23.078Z,123.75
2023-02-27T08:21:23.055Z,123.75
2023-02-27T08:22:23.046Z,123.75
2023-02-27T08:23:23.025Z,123.75
2023-02-27T08:24:23.018Z,123.75
2023-02-27T08:25:23.321Z,129.38
2023-02-27T08:26:23.013Z,129.38
2023-02-27T08:27:22.987Z,129.38
2023-02-27T08:28:22.985Z,129.38
2023-02-27T08:29:22.971Z,129.38
2023-02-27T08:30:22.983Z,135.00
2023-02-27T08:31:22.981Z,123.75
2023-02-27T08:32:23.006Z,118.12
2023-02-27T08:33:22.924Z,112.50
2023-02-27T08:34:22.913Z,118.12
2023-02-27T08:35:23.372Z,101.25
2023-02-27T08:36:22.894Z,112.50
2023-02-27T08:37:22.896Z,112.50
2023-02-27T08:38:24.843Z,112.50
2023-02-27T08:39:22.866Z,112.50
2023-02-27T08:40:23.595Z,112.50
2023-02-27T08:41:22.876Z,112.50
2023-02-27T08:42:22.829Z,112.50
2023-02-27T08:43:22.845Z,112.50
2023-02-27T08:44:22.806Z,112.50
2023-02-27T08:45:23.130Z,112.50
2023-02-27T08:46:22.799Z,106.88
2023-02-27T08:47:22.784Z,106.88
2023-02-27T08:48:22.783Z,106.88
2023-02-27T08:49:22.781Z,106.88
2023-02-27T08:50:23.113Z,106.88
2023-02-27T08:51:22.740Z,106.88
2023-02-27T08:52:24.893Z,106.88
2023-02-27T08:53:22.722Z,106.88
2023-02-27T08:54:22.707Z,106.88
2023-02-27T08:55:23.429Z,106.88
2023-02-27T08:56:22.685Z,106.88
2023-02-27T08:57:22.693Z,112.50
2023-02-27T08:58:22.664Z,112.50
2023-02-27T08:59:22.667Z,112.50
2023-02-27T09:00:23.074Z,112.50
2023-02-27T09:01:22.663Z,112.50
2023-02-27T09:02:22.656Z,112.50
2023-02-27T09:03:22.620Z,112.50
2023-02-27T09:04:22.615Z,112.50
2023-02-27T09:05:23.443Z,112.50
2023-02-27T09:06:25.121Z,112.50
2023-02-27T09:07:22.589Z,118.12
2023-02-27T09:08:22.581Z,118.12
2023-02-27T09:09:22.568Z,118.12
2023-02-27T09:10:23.365Z,118.12
2023-02-27T09:11:22.552Z,118.12
2023-02-27T09:12:22.527Z,118.12
2023-02-27T09:13:22.526Z,118.12
2023-02-27T09:14:22.507Z,118.12
2023-02-27T09:15:22.500Z,118.12
2023-02-27T09:16:22.537Z,118.12
2023-02-27T09:17:22.482Z,118.12
2023-02-27T09:18:22.475Z,118.12
2023-02-27T09:19:22.467Z,118.12
2023-02-27T09:20:22.456Z,118.12
2023-02-27T09:21:22.449Z,118.12
2023-02-27T09:22:22.426Z,118.12
2023-02-27T09:23:22.435Z,118.12
2023-02-27T09:24:22.412Z,118.12
2023-02-27T09:25:22.400Z,118.12
2023-02-27T09:26:35.727Z,118.12
2023-02-27T09:27:22.392Z,118.12
2023-02-27T09:28:22.368Z,112.50
2023-02-27T09:29:22.365Z,112.50
2023-02-27T09:30:22.364Z,112.50
2023-02-27T09:31:22.392Z,112.50
2023-02-27T09:32:22.468Z,112.50
2023-02-27T09:33:22.321Z,112.50
2023-02-27T09:34:22.308Z,112.50
2023-02-27T09:35:22.319Z,112.50
2023-02-27T09:36:22.292Z,112.50
2023-02-27T09:37:22.282Z,112.50
2023-02-27T09:38:22.280Z,112.50
2023-02-27T09:39:22.265Z,112.50
2023-02-27T09:40:22.309Z,112.50
2023-02-27T09:41:22.248Z,112.50
2023-02-27T09:42:22.235Z,112.50
2023-02-27T09:43:22.292Z,112.50
2023-02-27T09:44:33.473Z,112.50
2023-02-27T09:45:22.222Z,112.50
2023-02-27T09:46:22.191Z,112.50
2023-02-27T09:47:22.218Z,112.50
2023-02-27T09:48:22.169Z,112.50
2023-02-27T09:49:22.161Z,112.50
2023-02-27T09:50:22.163Z,118.12
2023-02-27T09:51:22.749Z,118.12
2023-02-27T09:52:22.124Z,118.12
2023-02-27T09:53:22.123Z,118.12
2023-02-27T09:54:22.109Z,118.12
2023-02-27T09:55:22.104Z,118.12
2023-02-27T09:56:22.092Z,118.12
2023-02-27T09:57:22.078Z,118.12
2023-02-27T09:58:22.064Z,118.12
2023-02-27T09:59:22.062Z,118.12
2023-02-27T10:00:22.051Z,123.75
2023-02-27T10:01:22.045Z,123.75
2023-02-27T10:02:22.101Z,123.75
2023-02-27T10:03:22.053Z,123.75
2023-02-27T10:04:22.010Z,129.38
2023-02-27T10:05:22.001Z,123.75
2023-02-27T10:06:22.002Z,118.12
2023-02-27T10:07:21.981Z,140.62
2023-02-27T10:08:21.974Z,146.25
2023-02-27T10:09:22.023Z,157.50
2023-02-27T10:10:21.944Z,163.12
2023-02-27T10:11:21.947Z,174.38
2023-02-27T10:12:21.941Z,174.38
2023-02-27T10:13:21.922Z,168.75
2023-02-27T10:14:21.908Z,168.75
2023-02-27T10:15:21.901Z,174.38
2023-02-27T10:16:21.916Z,180.00
2023-02-27T10:17:21.885Z,168.75
2023-02-27T10:18:28.077Z,157.50
2023-02-27T10:19:21.940Z,146.25
2023-02-27T10:20:21.847Z,140.62
2023-02-27T10:21:21.856Z,140.62
2023-02-27T10:22:21.832Z,140.62
2023-02-27T10:23:21.820Z,140.62
2023-02-27T10:24:21.808Z,140.62
2023-02-27T10:25:31.297Z,140.62
2023-02-27T10:26:21.795Z,140.62
2023-02-27T10:27:21.784Z,146.25
2023-02-27T10:28:21.771Z,146.25
2023-02-27T10:29:21.756Z,106.88
2023-02-27T10:30:29.208Z,90.00
2023-02-27T10:31:21.849Z,90.00
2023-02-27T10:32:21.872Z,101.25
2023-02-27T10:33:21.722Z,135.00
2023-02-27T10:34:21.706Z,135.00
2023-02-27T10:35:21.694Z,135.00
2023-02-27T10:36:33.160Z,84.38
2023-02-27T10:37:21.683Z,84.38
2023-02-27T10:38:21.672Z,84.38
2023-02-27T10:39:21.655Z,123.75
2023-02-27T10:40:21.650Z,90.00
2023-02-27T10:41:21.640Z,84.38
2023-02-27T10:42:21.635Z,112.50
2023-02-27T10:43:21.619Z,123.75
2023-02-27T10:44:21.615Z,140.62
2023-02-27T10:45:21.621Z,95.62
2023-02-27T10:46:21.661Z,106.88
2023-02-27T10:47:21.569Z,95.62
2023-02-27T10:48:21.573Z,95.62
2023-02-27T10:49:21.564Z,106.88
2023-02-27T10:50:21.546Z,151.88
2023-02-27T10:51:21.862Z,146.25
2023-02-27T10:52:21.529Z,123.75
2023-02-27T10:53:21.526Z,140.62
2023-02-27T10:54:21.519Z,140.62
2023-02-27T10:55:21.512Z,140.62
2023-02-27T10:56:21.501Z,123.75
2023-02-27T10:57:21.476Z,129.38
2023-02-27T10:58:21.464Z,129.38
2023-02-27T10:59:21.475Z,129.38
2023-02-27T11:00:21.479Z,129.38
2023-02-27T11:01:21.735Z,129.38
2023-02-27T11:02:21.423Z,129.38
2023-02-27T11:03:21.416Z,123.75
2023-02-27T11:04:21.451Z,123.75
2023-02-27T11:05:21.387Z,123.75
2023-02-27T11:06:21.393Z,123.75
2023-02-27T11:07:21.366Z,123.75
2023-02-27T11:08:21.362Z,123.75
2023-02-27T11:09:21.352Z,123.75
2023-02-27T11:10:21.344Z,123.75
2023-02-27T11:11:22.060Z,123.75
2023-02-27T11:12:21.326Z,118.12
2023-02-27T11:13:21.310Z,118.12
2023-02-27T11:14:21.299Z,118.12
2023-02-27T11:15:21.302Z,123.75
2023-02-27T11:16:22.027Z,123.75
2023-02-27T11:17:21.267Z,129.38
2023-02-27T11:18:21.262Z,129.38
2023-02-27T11:19:21.246Z,129.38
2023-02-27T11:20:21.242Z,129.38
2023-02-27T11:21:21.577Z,135.00
2023-02-27T11:22:21.224Z,135.00
2023-02-27T11:23:21.231Z,129.38
2023-02-27T11:24:21.215Z,129.38
2023-02-27T11:25:21.193Z,112.50
2023-02-27T11:26:21.901Z,90.00
2023-02-27T11:27:21.165Z,73.12
2023-02-27T11:28:21.166Z,73.12
2023-02-27T11:29:21.155Z,78.75
2023-02-27T11:30:21.150Z,78.75
2023-02-27T11:31:21.498Z,73.12
2023-02-27T11:32:21.197Z,78.75
2023-02-27T11:33:21.110Z,84.38
2023-02-27T11:34:21.103Z,135.00
2023-02-27T11:35:21.090Z,135.00
2023-02-27T11:36:21.795Z,135.00
2023-02-27T11:37:21.067Z,135.00
2023-02-27T11:38:21.059Z,140.62
2023-02-27T11:39:21.052Z,95.62
2023-02-27T11:40:21.037Z,95.62
2023-02-27T11:41:21.837Z,101.25
2023-02-27T11:42:21.040Z,112.50
2023-02-27T11:43:21.010Z,112.50
2023-02-27T11:44:23.934Z,118.12
2023-02-27T11:46:04.844Z,174.38
2023-02-27T11:46:46.560Z,135.00
2023-02-27T11:47:21.035Z,191.25
2023-02-27T11:48:20.967Z,196.88
2023-02-27T11:49:20.960Z,202.50
2023-02-27T11:50:20.945Z,196.88
2023-02-27T11:51:21.182Z,180.00
2023-02-27T11:52:20.920Z,174.38
2023-02-27T11:53:20.903Z,168.75
2023-02-27T11:54:20.902Z,163.12
2023-02-27T11:55:20.902Z,146.25
2023-02-27T11:56:21.665Z,112.50
2023-02-27T11:57:20.876Z,140.62
2023-02-27T11:58:20.860Z,129.38
2023-02-27T11:59:20.853Z,129.38
2023-02-27T12:00:20.851Z,135.00
2023-02-27T12:01:21.171Z,135.00
2023-02-27T12:02:20.847Z,135.00
2023-02-27T12:03:20.805Z,135.00
2023-02-27T12:04:20.837Z,135.00
2023-02-27T12:05:20.785Z,140.62
2023-02-27T12:06:21.608Z,140.62
2023-02-27T12:07:20.769Z,140.62
2023-02-27T12:08:20.761Z,140.62
2023-02-27T12:09:20.765Z,140.62
2023-02-27T12:10:20.766Z,129.38
2023-02-27T12:11:20.735Z,140.62
2023-02-27T12:12:20.723Z,106.88
2023-02-27T12:13:20.710Z,129.38
2023-02-27T12:14:20.710Z,163.12
2023-02-27T12:15:20.689Z,157.50
2023-02-27T12:16:20.709Z,157.50
2023-02-27T12:17:20.677Z,157.50
2023-02-27T12:18:20.666Z,163.12
2023-02-27T12:19:20.676Z,163.12
2023-02-27T12:20:20.648Z,168.75
2023-02-27T12:21:20.628Z,174.38
2023-02-27T12:22:20.649Z,146.25
2023-02-27T12:23:20.649Z,151.88
2023-02-27T12:24:20.621Z,140.62
2023-02-27T12:25:20.616Z,163.12
2023-02-27T12:26:20.600Z,185.62
2023-02-27T12:27:20.589Z,163.12
2023-02-27T12:28:20.618Z,151.88
2023-02-27T12:29:20.539Z,163.12
2023-02-27T12:30:20.564Z,157.50
2023-02-27T12:31:20.571Z,129.38
2023-02-27T12:32:20.553Z,146.25
2023-02-27T12:33:20.501Z,101.25
2023-02-27T12:34:20.495Z,95.62
2023-02-27T12:35:20.483Z,129.38
2023-02-27T12:36:20.474Z,123.75
2023-02-27T12:37:20.475Z,112.50
2023-02-27T12:38:20.453Z,78.75
2023-02-27T12:39:20.439Z,78.75
2023-02-27T12:40:20.438Z,78.75
2023-02-27T12:41:20.413Z,84.38
2023-02-27T12:42:20.415Z,84.38
2023-02-27T12:43:20.391Z,95.62
2023-02-27T12:44:20.395Z,101.25
2023-02-27T12:45:20.377Z,135.00
2023-02-27T12:46:20.371Z,146.25
2023-02-27T12:47:20.360Z,151.88
2023-02-27T12:48:20.350Z,151.88
2023-02-27T12:49:20.358Z,140.62
2023-02-27T12:50:20.342Z,146.25
2023-02-27T12:51:20.339Z,151.88
2023-02-27T12:52:20.322Z,140.62
2023-02-27T12:53:20.326Z,146.25